Time;durP1;ratioP1;P1;durP2;ratioP2;P2;SDS_P1;SDS_P2;PMS_P1;PMS_P2;Temp;Humidity;BMP_temperature;BMP_pressure;BME280_temperature;BME280_humidity;BME280_pressure;Samples;Min_cycle;Max_cycle;Signal;HPM_P1;HPM_P2
2023/06/17 00:00:10;;;;;;;9.87;4.77;;;16.80;91.30;;;17.47;82.98;98130.16;5024977;28;20497;-80
2023/06/17 00:02:39;;;;;;;6.57;3.83;;;16.80;91.40;;;17.44;83.19;98129.81;5025384;28;20468;-80
2023/06/17 00:05:11;;;;;;;7.93;5.40;;;16.80;91.50;;;17.39;83.60;98132.34;5023292;28;20512;-80
2023/06/17 00:07:43;;;;;;;6.87;4.20;;;16.70;91.60;;;17.37;83.54;98127.28;5025626;28;20541;-80
2023/06/17 00:10:12;;;;;;;6.20;4.30;;;16.70;91.60;;;17.37;83.35;98129.94;5023643;28;21071;-80
2023/06/17 00:12:43;;;;;;;4.93;4.03;;;16.60;91.80;;;17.33;83.47;98134.06;5025007;28;20535;-80
2023/06/17 00:15:12;;;;;;;16.20;4.63;;;16.60;91.70;;;17.28;83.52;98126.00;5023938;28;20459;-80
2023/06/17 00:17:44;;;;;;;7.30;4.63;;;16.50;91.60;;;17.24;84.36;98119.56;5020637;28;20462;-80
2023/06/17 00:20:14;;;;;;;6.00;4.07;;;16.50;91.80;;;17.19;84.37;98122.06;5023670;28;20508;-80
2023/06/17 00:22:44;;;;;;;7.10;4.53;;;16.40;91.80;;;17.15;84.52;98120.13;5024406;28;20967;-80
2023/06/17 00:25:13;;;;;;;6.60;4.77;;;16.40;91.80;;;17.05;85.14;98112.72;5023086;28;20466;-81
2023/06/17 00:27:43;;;;;;;7.43;4.77;;;16.40;91.80;;;16.98;85.93;98110.19;5024892;28;20488;-80
2023/06/17 00:30:12;;;;;;;7.27;4.40;;;16.30;92.00;;;16.97;85.82;98115.72;5026372;28;20470;-80
2023/06/17 00:32:41;;;;;;;6.10;4.20;;;16.20;92.00;;;16.96;86.03;98106.97;5026521;28;20671;-81
2023/06/17 00:35:11;;;;;;;6.80;4.57;;;16.20;92.10;;;16.92;85.99;98107.66;5023288;28;20466;-80
2023/06/17 00:37:39;;;;;;;6.47;4.23;;;16.20;92.10;;;16.85;86.63;98109.59;5024024;28;20466;-80
2023/06/17 00:40:13;;;;;;;5.60;4.10;;;16.20;92.10;;;16.79;86.92;98113.13;5023184;28;20489;-80
2023/06/17 00:42:42;;;;;;;6.80;4.30;;;16.10;92.20;;;16.72;87.55;98110.59;5023612;28;21087;-80
2023/06/17 00:45:11;;;;;;;5.50;4.60;;;16.10;92.20;;;16.66;87.95;98114.09;5020816;28;20500;-80
2023/06/17 00:47:42;;;;;;;6.07;4.77;;;16.00;92.30;;;16.63;88.00;98111.09;5022041;28;20548;-80
2023/06/17 00:50:14;;;;;;;6.50;4.07;;;15.90;92.40;;;16.58;88.38;98115.25;5022704;28;20825;-80
2023/06/17 00:52:46;;;;;;;9.83;4.97;;;15.90;92.50;;;16.53;88.56;98109.78;5022810;28;20466;-80
2023/06/17 00:55:17;;;;;;;6.37;4.43;;;15.90;92.50;;;16.46;88.60;98106.41;5023012;28;20476;-80
2023/06/17 00:57:47;;;;;;;5.50;3.50;;;15.80;92.40;;;16.41;89.19;98110.75;5022380;28;20466;-81
2023/06/17 01:00:17;;;;;;;6.97;4.20;;;15.70;92.40;;;16.37;89.25;98107.75;5025934;28;21015;-80
2023/06/17 01:02:47;;;;;;;7.10;4.40;;;15.70;92.60;;;16.34;89.70;98102.13;5024547;28;21303;-80
2023/06/17 01:05:18;;;;;;;7.40;4.50;;;15.70;92.60;;;16.29;89.94;98100.13;5021422;28;20832;-80
2023/06/17 01:08:16;;;;;;;6.73;4.10;;;15.60;92.70;;;16.30;89.71;98107.03;5023112;28;20454;-80
2023/06/17 01:10:59;;;;;;;6.23;4.57;;;15.60;92.80;;;16.28;89.75;98103.81;5023047;28;20471;-80
2023/06/17 01:13:29;;;;;;;5.80;4.60;;;15.50;92.90;;;16.25;89.61;98109.53;5023101;28;20470;-80
2023/06/17 01:16:01;;;;;;;6.67;4.50;;;15.50;92.70;;;16.21;89.89;98107.56;5020053;28;20474;-80
2023/06/17 01:18:31;;;;;;;5.57;4.33;;;15.50;93.10;;;16.17;89.93;98109.84;5024043;28;20630;-81
2023/06/17 01:21:03;;;;;;;6.33;4.40;;;15.40;92.80;;;16.10;90.08;98101.97;5022926;28;20501;-80
2023/06/17 01:23:34;;;;;;;5.50;4.10;;;15.40;92.70;;;16.04;90.34;98104.69;5022957;28;20454;-80
2023/06/17 01:26:07;;;;;;;5.30;3.97;;;15.40;92.70;;;15.98;91.01;98103.75;5023473;28;20497;-81
2023/06/17 01:28:40;;;;;;;7.20;4.33;;;15.30;92.80;;;15.97;91.27;98106.59;5022725;28;20470;-80
2023/06/17 01:31:12;;;;;;;7.20;3.93;;;15.30;93.00;;;15.96;91.31;98099.72;5022913;28;20553;-80
2023/06/17 01:33:46;;;;;;;6.43;4.13;;;15.20;92.90;;;15.93;91.24;98108.09;5022336;28;20490;-80
2023/06/17 01:36:22;;;;;;;6.80;4.07;;;15.20;93.10;;;15.93;91.13;98105.44;5022519;28;20477;-80
2023/06/17 01:38:58;;;;;;;7.80;5.10;;;15.20;93.10;;;15.89;91.47;98110.34;5025602;28;20459;-80
2023/06/17 01:41:38;;;;;;;8.00;4.40;;;15.20;93.10;;;15.84;91.86;98106.75;5024340;28;20493;-80
2023/06/17 01:44:11;;;;;;;5.60;4.00;;;15.20;93.10;;;15.81;91.93;98107.19;5025208;28;20888;-81
2023/06/17 01:46:43;;;;;;;6.43;4.30;;;15.10;93.10;;;15.79;91.80;98104.75;5023405;28;20972;-80
2023/06/17 01:49:12;;;;;;;6.60;4.80;;;15.10;93.20;;;15.76;92.17;98099.91;5025669;28;20454;-80
2023/06/17 01:51:41;;;;;;;6.10;4.57;;;15.10;93.20;;;15.77;92.07;98106.81;5023872;28;20994;-80
2023/06/17 01:54:10;;;;;;;5.93;4.33;;;15.00;93.30;;;15.75;92.32;98108.06;5025284;28;20462;-80
2023/06/17 01:56:41;;;;;;;5.73;3.90;;;15.00;93.30;;;15.66;92.40;98104.88;5024755;28;20466;-80
2023/06/17 01:59:10;;;;;;;5.63;3.90;;;15.00;93.30;;;15.59;93.22;98114.69;5024007;28;20505;-81
2023/06/17 02:01:39;;;;;;;9.93;4.07;;;15.00;93.30;;;15.53;93.78;98111.09;5023496;28;21016;-81
2023/06/17 02:04:07;;;;;;;6.60;4.20;;;14.90;93.30;;;15.46;94.42;98112.16;5023090;28;20469;-80
2023/06/17 02:06:37;;;;;;;6.63;4.63;;;14.80;93.40;;;15.43;94.69;98110.75;5023245;28;20466;-81
2023/06/17 02:09:07;;;;;;;6.27;4.10;;;14.80;93.60;;;15.39;94.75;98101.66;5024220;28;20474;-80
2023/06/17 02:11:36;;;;;;;8.63;4.83;;;14.80;93.60;;;15.39;94.95;98104.31;5025280;28;20473;-80
2023/06/17 02:14:06;;;;;;;7.00;4.47;;;14.70;93.60;;;15.40;94.79;98095.38;5024955;28;20466;-80
2023/06/17 02:16:42;;;;;;;5.40;4.20;;;14.70;93.70;;;15.40;94.46;98105.94;5022561;28;20473;-80
2023/06/17 02:19:12;;;;;;;11.30;4.13;;;14.70;93.60;;;15.36;94.48;98096.84;5022509;28;20477;-82
2023/06/17 02:21:41;;;;;;;7.47;4.30;;;14.70;93.60;;;15.34;94.81;98101.50;5022669;28;20556;-80
2023/06/17 02:24:11;;;;;;;4.70;4.10;;;14.60;93.60;;;15.27;95.78;98108.66;5021594;28;21006;-80
2023/06/17 02:26:41;;;;;;;7.17;4.50;;;14.60;93.70;;;15.19;96.29;98098.41;5020613;28;20957;-81
2023/06/17 02:29:11;;;;;;;7.43;4.63;;;14.50;93.80;;;15.13;96.88;98104.53;5022325;28;20473;-80
2023/06/17 02:31:40;;;;;;;8.23;4.57;;;14.50;93.80;;;15.16;96.64;98090.94;5020110;28;20477;-81
2023/06/17 02:34:10;;;;;;;7.83;4.60;;;14.40;94.10;;;15.15;96.19;98091.94;5022701;28;20466;-81
2023/06/17 02:36:39;;;;;;;7.33;5.00;;;14.40;93.90;;;15.10;96.39;98091.75;5019454;28;20481;-81
2023/06/17 02:39:08;;;;;;;5.57;4.20;;;14.40;93.90;;;15.05;97.10;98091.63;5022998;28;20905;-80
2023/06/17 02:41:37;;;;;;;6.00;4.67;;;14.40;94.00;;;15.02;97.38;98087.59;5020614;28;20498;-80
2023/06/17 02:44:05;;;;;;;6.70;4.53;;;14.30;94.20;;;15.01;96.75;98088.59;5021271;28;20628;-81
2023/06/17 02:46:35;;;;;;;5.70;4.33;;;14.30;94.00;;;15.00;97.14;98094.88;5022632;28;20501;-81
2023/06/17 02:49:05;;;;;;;6.33;4.60;;;14.30;94.20;;;14.98;96.83;98085.59;5023665;28;20620;-80
2023/06/17 02:51:34;;;;;;;6.77;4.47;;;14.30;94.10;;;14.94;97.33;98087.03;5024080;28;20473;-80
2023/06/17 02:54:03;;;;;;;10.90;4.97;;;14.20;94.10;;;14.90;97.33;98088.47;5024486;28;20477;-80
2023/06/17 02:56:33;;;;;;;6.10;4.10;;;14.20;94.10;;;14.86;97.68;98084.66;5022405;28;21030;-80
2023/06/17 02:59:02;;;;;;;6.03;4.10;;;14.10;94.10;;;14.83;97.82;98087.72;5023473;28;21014;-80
2023/06/17 03:01:31;;;;;;;6.70;4.30;;;14.10;94.10;;;14.82;97.93;98086.13;5021572;28;20533;-80
2023/06/17 03:04:04;;;;;;;13.00;7.60;;;14.10;94.30;;;14.80;98.29;98088.13;5021182;28;20520;-78
2023/06/17 03:06:33;;;;;;;9.07;4.87;;;14.10;94.20;;;14.78;98.39;98095.44;5020732;28;20595;-80
2023/06/17 03:09:03;;;;;;;7.87;4.60;;;14.10;94.30;;;14.77;98.36;98091.19;5019609;28;20537;-80
2023/06/17 03:11:32;;;;;;;6.60;4.33;;;14.00;94.30;;;14.73;98.47;98092.63;5022249;28;20461;-77
2023/06/17 03:14:00;;;;;;;8.23;4.67;;;14.00;94.20;;;14.73;98.79;98087.38;5022151;28;20535;-80
2023/06/17 03:16:33;;;;;;;5.63;4.10;;;14.00;94.50;;;14.72;98.67;98085.75;5019240;28;20465;-80
2023/06/17 03:19:04;;;;;;;5.20;3.87;;;14.00;94.40;;;14.61;99.58;98084.63;5019950;28;20965;-80
2023/06/17 03:21:35;;;;;;;6.50;4.10;;;14.00;94.30;;;14.56;100.00;98087.88;5023234;28;21122;-77
2023/06/17 03:24:05;;;;;;;6.50;5.00;;;13.90;94.40;;;14.56;100.00;98081.81;5022162;28;20454;-78
2023/06/17 03:26:35;;;;;;;6.97;4.73;;;13.80;94.60;;;14.57;99.57;98084.25;5021040;28;20555;-80
2023/06/17 03:29:04;;;;;;;8.30;3.90;;;13.90;94.50;;;14.56;99.35;98082.63;5021204;28;20467;-80
2023/06/17 03:31:35;;;;;;;10.30;4.47;;;13.80;94.50;;;14.53;99.42;98083.03;5024471;28;20469;-81
2023/06/17 03:34:05;;;;;;;5.60;4.53;;;13.80;94.60;;;14.54;100.00;98084.63;5026948;28;20477;-80
2023/06/17 03:36:34;;;;;;;7.90;4.70;;;13.80;94.80;;;14.51;100.00;98082.44;5028023;28;20454;-80
2023/06/17 03:39:03;;;;;;;7.50;4.80;;;13.70;94.60;;;14.44;100.00;98086.91;5028931;28;20516;-80
2023/06/17 03:41:31;;;;;;;8.60;4.60;;;13.80;94.60;;;14.34;100.00;98080.50;5028804;28;20583;-80
2023/06/17 03:44:00;;;;;;;7.70;4.70;;;13.70;94.60;;;14.31;100.00;98081.69;5027505;28;20987;-81
2023/06/17 03:46:29;;;;;;;6.70;4.47;;;13.60;94.70;;;14.28;100.00;98079.50;5026313;28;20458;-80
2023/06/17 03:48:58;;;;;;;5.87;4.20;;;13.60;95.00;;;14.31;100.00;98083.53;5027108;28;20914;-81
2023/06/17 03:51:30;;;;;;;9.27;4.10;;;13.60;95.10;;;14.32;100.00;98080.69;5025288;28;20757;-80
2023/06/17 03:53:59;;;;;;;6.37;4.00;;;13.60;95.20;;;14.36;100.00;98076.66;5027632;28;21015;-80
2023/06/17 03:56:27;;;;;;;8.20;4.90;;;13.60;95.10;;;14.33;100.00;98079.69;5026849;28;20481;-80
2023/06/17 03:58:56;;;;;;;5.40;4.30;;;13.60;94.90;;;14.30;100.00;98082.72;5025941;28;20465;-80
2023/06/17 04:01:25;;;;;;;6.20;3.97;;;13.60;95.00;;;14.27;100.00;98071.78;5024571;28;20497;-79
2023/06/17 04:03:54;;;;;;;5.90;4.10;;;13.60;95.00;;;14.23;100.00;98075.88;5024706;28;20462;-80
2023/06/17 04:06:22;;;;;;;6.37;3.93;;;13.60;95.00;;;14.16;100.00;98075.88;5023422;28;20494;-79
2023/06/17 04:08:53;;;;;;;8.33;4.90;;;13.60;95.00;;;14.10;100.00;98071.47;5023098;28;20473;-79
2023/06/17 04:11:22;;;;;;;6.90;4.80;;;13.50;95.00;;;14.05;100.00;98076.56;5023602;28;20466;-79
2023/06/17 04:13:51;;;;;;;9.77;4.43;;;13.50;95.20;;;14.05;100.00;98068.66;5023413;28;21187;-78
2023/06/17 04:16:21;;;;;;;7.07;5.03;;;13.40;95.30;;;14.08;100.00;98078.78;5022505;28;20474;-78
2023/06/17 04:18:50;;;;;;;9.50;4.70;;;13.40;95.30;;;14.11;100.00;98075.72;5024460;28;20523;-79
2023/06/17 04:21:19;;;;;;;8.07;4.30;;;13.40;95.40;;;14.13;100.00;98075.53;5024974;28;20464;-80
2023/06/17 04:23:48;;;;;;;5.97;4.07;;;13.40;95.30;;;14.16;100.00;98081.16;5023110;28;20497;-78
2023/06/17 04:26:18;;;;;;;8.10;5.03;;;13.40;95.30;;;14.19;100.00;98075.50;5024477;28;20561;-79
2023/06/17 04:28:49;;;;;;;7.47;4.50;;;13.50;95.40;;;14.22;100.00;98082.97;5024745;28;20461;-79
2023/06/17 04:31:17;;;;;;;5.53;4.40;;;13.50;95.40;;;14.24;100.00;98078.28;5022522;28;20900;-80
2023/06/17 04:33:46;;;;;;;16.00;4.70;;;13.50;95.40;;;14.25;100.00;98079.91;5023355;28;20535;-78
2023/06/17 04:36:17;;;;;;;11.90;5.63;;;13.50;95.40;;;14.27;100.00;98077.06;5022759;28;20472;-80
2023/06/17 04:38:47;;;;;;;7.93;4.97;;;13.50;95.80;;;14.34;100.00;98078.69;5023077;28;20466;-79
2023/06/17 04:41:18;;;;;;;5.97;4.70;;;13.50;95.80;;;14.37;100.00;98077.47;5023660;28;20799;-79
2023/06/17 04:43:48;;;;;;;7.83;4.70;;;13.50;95.50;;;14.37;100.00;98078.25;5026550;28;21004;-79
2023/06/17 04:46:17;;;;;;;7.20;4.80;;;13.60;95.50;;;14.40;100.00;98080.50;5027074;28;20826;-79
2023/06/17 04:48:47;;;;;;;6.23;4.80;;;13.60;95.60;;;14.44;100.00;98081.66;5027408;28;20466;-78
2023/06/17 04:51:17;;;;;;;8.47;4.90;;;13.60;95.30;;;14.49;100.00;98071.31;5027932;28;20968;-78
2023/06/17 04:53:47;;;;;;;7.40;4.87;;;13.70;95.30;;;14.54;100.00;98079.38;5028093;28;20458;-79
2023/06/17 04:56:16;;;;;;;6.63;4.80;;;13.70;95.30;;;14.59;100.00;98076.94;5025682;28;20995;-79
2023/06/17 04:58:46;;;;;;;12.23;4.53;;;13.80;95.30;;;14.66;100.00;98076.06;5028130;28;20810;-78
2023/06/17 05:01:15;;;;;;;9.93;4.83;;;13.80;95.30;;;14.69;100.00;98075.66;5027600;28;20548;-79
2023/06/17 05:03:44;;;;;;;6.27;4.40;;;13.80;95.10;;;14.76;100.00;98079.03;5026911;28;20868;-79
2023/06/17 05:06:14;;;;;;;7.77;5.30;;;13.80;95.20;;;14.80;100.00;98077.59;5025711;28;20493;-78
2023/06/17 05:08:43;;;;;;;8.00;5.57;;;13.90;95.10;;;14.84;99.77;98078.78;5026997;28;20821;-79
2023/06/17 05:11:12;;;;;;;6.17;4.70;;;14.00;95.00;;;14.85;99.19;98075.97;5027352;28;20839;-79
2023/06/17 05:13:41;;;;;;;6.67;4.93;;;14.00;94.80;;;14.88;98.87;98078.16;5026901;28;20527;-79
2023/06/17 05:16:12;;;;;;;6.30;4.63;;;14.00;94.70;;;14.93;98.73;98088.84;5025704;28;21205;-79
2023/06/17 05:18:41;;;;;;;6.87;5.07;;;14.10;94.70;;;14.96;98.98;98095.53;5026684;28;20516;-78
2023/06/17 05:21:09;;;;;;;9.50;4.90;;;14.10;94.90;;;15.00;98.69;98088.81;5027411;28;20466;-79
2023/06/17 05:23:38;;;;;;;9.90;5.27;;;14.20;94.90;;;15.04;98.54;98085.53;5025685;28;20572;-79
2023/06/17 05:26:06;;;;;;;8.13;4.93;;;14.20;94.80;;;15.10;98.24;98094.41;5025629;28;20872;-79
2023/06/17 05:28:37;;;;;;;6.53;4.50;;;14.20;94.70;;;15.13;97.82;98089.50;5025795;28;20458;-79
2023/06/17 05:31:05;;;;;;;8.97;5.00;;;14.30;94.60;;;15.16;97.50;98090.13;5026021;28;20462;-78
2023/06/17 05:33:35;;;;;;;6.60;5.20;;;14.30;94.60;;;15.20;97.06;98094.75;5025481;28;20462;-79
2023/06/17 05:36:04;;;;;;;9.47;5.30;;;14.40;94.50;;;15.23;96.54;98094.31;5026902;28;20492;-78
2023/06/17 05:38:33;;;;;;;5.90;4.37;;;14.50;94.40;;;15.24;96.12;98084.59;5025718;28;20473;-79
2023/06/17 05:41:03;;;;;;;6.40;4.27;;;14.50;94.30;;;15.26;96.34;98093.88;5026291;28;20475;-78
2023/06/17 05:43:32;;;;;;;7.77;4.90;;;14.50;94.30;;;15.28;96.44;98099.72;5026066;28;20498;-79
2023/06/17 05:46:01;;;;;;;6.47;4.97;;;14.50;94.30;;;15.34;96.54;98096.22;5026850;28;20628;-79
2023/06/17 05:48:30;;;;;;;7.30;5.10;;;14.50;94.40;;;15.39;96.63;98093.75;5026553;28;20524;-79
2023/06/17 05:51:00;;;;;;;5.73;4.70;;;14.60;94.40;;;15.44;96.31;98085.22;5025701;28;20469;-79
2023/06/17 05:53:28;;;;;;;6.10;4.70;;;14.60;94.40;;;15.49;96.36;98094.09;5024793;28;20498;-79
2023/06/17 05:55:58;;;;;;;7.43;5.00;;;14.70;94.40;;;15.55;96.31;98092.41;5026567;28;20468;-79
2023/06/17 05:58:26;;;;;;;8.43;5.13;;;14.70;94.60;;;15.60;96.39;98079.41;5027440;28;20481;-79
2023/06/17 06:00:55;;;;;;;6.57;4.80;;;14.70;94.60;;;15.68;96.25;98088.88;5025460;28;20481;-79
2023/06/17 06:03:23;;;;;;;9.90;4.53;;;14.80;94.70;;;15.73;96.63;98089.81;5025373;28;20494;-79
2023/06/17 06:05:52;;;;;;;6.60;4.40;;;14.90;94.80;;;15.78;96.25;98075.97;5025820;28;20462;-79
2023/06/17 06:08:22;;;;;;;10.37;4.87;;;14.90;94.60;;;15.83;96.36;98078.75;5026005;28;20461;-78
2023/06/17 06:10:50;;;;;;;7.87;4.90;;;15.00;94.70;;;15.88;96.38;98073.63;5025262;28;20973;-79
2023/06/17 06:13:20;;;;;;;8.57;5.17;;;15.00;94.70;;;15.93;96.52;98081.72;5025200;28;20481;-79
2023/06/17 06:15:48;;;;;;;12.00;5.00;;;15.00;94.80;;;15.98;96.41;98087.13;5025009;28;20469;-79
2023/06/17 06:18:17;;;;;;;9.10;5.47;;;15.10;94.80;;;16.04;96.69;98088.88;5025648;28;20988;-79
2023/06/17 06:20:46;;;;;;;5.60;4.47;;;15.10;94.70;;;16.10;96.35;98088.00;5025371;28;20532;-79
2023/06/17 06:23:14;;;;;;;8.57;5.20;;;15.20;94.80;;;16.17;96.30;98085.28;5025761;28;20500;-79
2023/06/17 06:25:45;;;;;;;9.03;5.80;;;15.30;94.80;;;16.22;95.96;98077.50;5024605;28;20492;-79
2023/06/17 06:28:14;;;;;;;8.90;5.27;;;15.30;94.60;;;16.28;95.48;98089.81;5024659;28;21009;-79
2023/06/17 06:30:43;;;;;;;6.70;4.93;;;15.40;94.60;;;16.34;95.44;98086.28;5023997;28;20965;-79
2023/06/17 06:33:12;;;;;;;9.03;4.70;;;15.50;94.60;;;16.40;95.38;98082.75;5025473;28;20520;-79
2023/06/17 06:35:43;;;;;;;7.03;4.43;;;15.50;94.70;;;16.46;95.37;98081.84;5024437;28;20828;-79
2023/06/17 06:38:11;;;;;;;6.63;4.57;;;15.60;94.60;;;16.53;94.81;98085.22;5026381;28;20461;-79
2023/06/17 06:40:41;;;;;;;11.73;5.97;;;15.70;94.50;;;16.59;95.05;98082.50;5025558;28;20481;-79
2023/06/17 06:43:11;;;;;;;6.37;4.63;;;15.80;94.50;;;16.67;95.41;98089.31;5026308;28;20494;-79
2023/06/17 06:45:40;;;;;;;6.93;4.70;;;15.90;94.70;;;16.71;95.90;98079.91;5026189;28;20469;-78
2023/06/17 06:48:08;;;;;;;8.10;5.00;;;15.90;94.80;;;16.79;95.48;98092.00;5025212;28;20479;-79
2023/06/17 06:50:37;;;;;;;7.67;4.43;;;16.00;94.80;;;16.86;96.44;98087.44;5025200;28;20759;-79
2023/06/17 06:53:06;;;;;;;4.90;4.07;;;16.10;95.00;;;16.92;96.91;98089.97;5025986;28;20474;-79
2023/06/17 06:55:34;;;;;;;5.67;4.10;;;16.10;95.00;;;17.00;96.76;98083.56;5023397;28;20538;-79
2023/06/17 06:58:03;;;;;;;10.87;4.70;;;16.20;95.10;;;17.07;97.00;98081.63;5025203;28;20527;-79
2023/06/17 07:00:33;;;;;;;7.10;5.03;;;16.30;95.10;;;17.15;97.56;98086.56;5025901;28;20467;-79
2023/06/17 07:03:02;;;;;;;10.17;4.93;;;16.40;95.10;;;17.22;97.89;98089.91;5027267;28;20521;-79
2023/06/17 07:05:33;;;;;;;5.93;4.03;;;16.40;95.20;;;17.27;97.97;98090.03;5028649;28;20478;-79
2023/06/17 07:08:04;;;;;;;11.57;4.67;;;16.50;95.30;;;17.34;97.68;98088.09;5029904;28;20984;-79
2023/06/17 07:10:39;;;;;;;13.53;5.17;;;16.50;95.40;;;17.42;97.71;98087.72;5029511;28;20473;-79
2023/06/17 07:13:10;;;;;;;7.70;4.60;;;16.60;95.40;;;17.50;98.08;98089.22;5029559;28;20462;-79
2023/06/17 07:15:40;;;;;;;6.83;4.83;;;16.70;95.40;;;17.58;98.49;98084.44;5027785;28;20479;-79
2023/06/17 07:18:08;;;;;;;6.83;4.13;;;16.80;95.60;;;17.65;98.27;98084.31;5028087;28;20469;-79
2023/06/17 07:20:38;;;;;;;5.03;4.20;;;16.80;95.60;;;17.73;98.74;98081.34;5028134;28;20466;-79
2023/06/17 07:23:07;;;;;;;6.23;4.50;;;16.90;95.60;;;17.79;98.80;98082.25;5026624;28;20478;-79
2023/06/17 07:25:36;;;;;;;5.57;4.37;;;17.00;95.60;;;17.88;98.78;98078.19;5027717;28;20454;-79
2023/06/17 07:28:07;;;;;;;7.53;5.53;;;17.10;95.80;;;17.94;98.75;98082.56;5028491;28;20520;-79
2023/06/17 07:30:35;;;;;;;7.43;4.90;;;17.10;95.70;;;18.02;98.47;98074.25;5028662;28;20865;-79
2023/06/17 07:33:06;;;;;;;5.97;4.00;;;17.20;95.60;;;18.12;98.85;98078.97;5027338;28;20470;-79
2023/06/17 07:35:36;;;;;;;12.80;4.33;;;17.30;95.90;;;18.20;98.63;98079.41;5028877;28;20461;-79
2023/06/17 07:38:05;;;;;;;7.20;4.27;;;17.40;95.60;;;18.29;98.11;98067.38;5029249;28;20597;-79
2023/06/17 07:40:36;;;;;;;8.60;4.43;;;17.50;95.60;;;18.38;97.87;98078.41;5028957;28;20865;-79
2023/06/17 07:43:04;;;;;;;7.97;4.83;;;17.60;95.70;;;18.46;97.62;98070.91;5026872;28;20800;-79
2023/06/17 07:45:33;;;;;;;6.20;4.60;;;17.70;95.40;;;18.53;96.84;98074.22;5028424;28;20498;-79
2023/06/17 07:48:01;;;;;;;7.87;4.27;;;17.80;95.20;;;18.62;95.84;98074.66;5028892;28;20478;-79
2023/06/17 07:50:31;;;;;;;5.97;4.30;;;17.80;95.00;;;18.68;95.20;98073.72;5029386;28;20477;-79
2023/06/17 07:53:00;;;;;;;6.97;5.00;;;17.90;94.70;;;18.78;94.08;98068.59;5029717;28;20518;-79
2023/06/17 07:55:30;;;;;;;6.00;3.97;;;18.00;94.70;;;18.87;93.07;98072.47;5028032;28;20470;-79
2023/06/17 07:57:58;;;;;;;7.70;4.40;;;18.10;94.20;;;18.99;90.92;98069.72;5028133;28;20462;-79
2023/06/17 08:00:27;;;;;;;5.60;4.20;;;18.20;93.80;;;19.06;90.80;98059.78;5028922;28;20486;-79
2023/06/17 08:02:56;;;;;;;7.00;4.00;;;18.30;94.20;;;19.14;90.37;98059.38;5028951;28;20509;-79
2023/06/17 08:05:25;;;;;;;7.70;5.07;;;18.40;94.00;;;19.22;90.11;98058.19;5028743;28;20498;-79
2023/06/17 08:07:56;;;;;;;7.73;4.47;;;18.50;94.00;;;19.30;89.34;98066.53;5029441;28;20960;-79
2023/06/17 08:10:24;;;;;;;8.20;4.20;;;18.60;93.70;;;19.36;87.41;98057.63;5027226;28;20885;-79
2023/06/17 08:12:52;;;;;;;7.43;3.97;;;18.70;93.10;;;19.46;84.15;98059.63;5028298;28;20473;-79
2023/06/17 08:15:22;;;;;;;7.20;4.47;;;18.70;91.70;;;19.55;81.05;98052.88;5026755;28;20501;-79
2023/06/17 08:17:52;;;;;;;9.23;4.33;;;18.80;91.50;;;19.64;78.18;98053.25;5027603;28;20469;-79
2023/06/17 08:20:22;;;;;;;8.50;4.00;;;18.90;89.40;;;19.72;74.52;98047.50;5027227;28;20462;-79
2023/06/17 08:22:51;;;;;;;7.03;3.80;;;19.00;87.10;;;19.79;72.86;98042.84;5028416;28;20485;-79
2023/06/17 08:25:21;;;;;;;6.50;4.00;;;19.10;88.70;;;19.86;66.20;98038.16;5027530;28;20497;-79
2023/06/17 08:27:50;;;;;;;7.33;4.50;;;19.20;83.60;;;19.99;62.80;98038.59;5028223;28;20493;-79
2023/06/17 08:30:19;;;;;;;7.53;3.97;;;19.30;83.20;;;20.09;61.99;98044.03;5027349;28;20458;-79
2023/06/17 08:32:49;;;;;;;5.80;3.77;;;19.40;81.30;;;20.17;60.85;98034.81;5028348;28;20473;-80
2023/06/17 08:35:18;;;;;;;6.40;4.10;;;19.50;81.60;;;20.26;56.12;98030.69;5027189;28;20466;-79
2023/06/17 08:37:47;;;;;;;7.10;4.67;;;19.50;77.40;;;20.37;57.79;98034.28;5027303;28;20890;-80
2023/06/17 08:40:16;;;;;;;6.63;4.20;;;19.60;79.70;;;20.46;56.77;98022.94;5026228;28;20470;-80
2023/06/17 08:42:50;;;;;;;6.00;3.43;;;19.70;78.90;;;20.54;57.16;98027.81;5027550;28;21027;-80
2023/06/17 08:45:21;;;;;;;10.30;4.20;;;19.80;79.50;;;20.63;56.62;98022.03;5026116;28;21012;-80
2023/06/17 08:47:50;;;;;;;7.90;4.10;;;19.90;79.70;;;20.81;51.95;98021.66;5026771;28;20474;-80
2023/06/17 08:50:20;;;;;;;5.77;3.67;;;20.30;75.50;;;20.98;52.50;98011.69;5026068;28;21151;-80
2023/06/17 08:52:51;;;;;;;6.23;3.93;;;20.40;76.30;;;21.17;51.30;98010.28;5027126;28;20502;-80
2023/06/17 08:55:23;;;;;;;7.40;4.20;;;20.50;75.70;;;21.28;51.19;98011.13;5026494;28;20469;-80
2023/06/17 08:57:53;;;;;;;6.40;3.97;;;20.60;75.60;;;21.40;51.37;98020.56;5027434;28;20493;-80
2023/06/17 09:00:23;;;;;;;5.63;3.57;;;20.80;75.70;;;21.46;52.04;98010.72;5025956;28;20964;-80
2023/06/17 09:02:59;;;;;;;6.70;3.87;;;20.80;77.00;;;21.55;51.89;98006.53;5027133;28;20545;-80
2023/06/17 09:05:28;;;;;;;7.20;3.93;;;20.90;76.60;;;21.66;49.17;98000.19;5026086;28;20497;-81
2023/06/17 09:07:57;;;;;;;6.37;4.03;;;21.20;73.50;;;21.77;48.98;97998.38;5027160;28;20469;-80
2023/06/17 09:10:26;;;;;;;7.00;4.47;;;21.20;73.90;;;21.81;49.44;97996.78;5025383;28;20470;-80
2023/06/17 09:12:59;;;;;;;6.90;4.63;;;21.20;74.20;;;21.85;49.60;97998.69;5025479;28;21046;-80
2023/06/17 09:15:28;;;;;;;4.27;3.67;;;21.10;74.30;;;21.92;49.94;98001.13;5025288;28;20518;-80
2023/06/17 09:17:59;;;;;;;5.90;3.93;;;21.20;75.10;;;21.94;49.82;97999.00;5027101;28;20477;-80
2023/06/17 09:20:33;;;;;;;5.33;3.63;;;21.20;74.90;;;21.98;50.56;97997.41;5026560;28;20548;-80
2023/06/17 09:23:02;;;;;;;6.67;4.03;;;21.20;76.00;;;21.99;49.96;97989.19;5025996;28;20473;-80
2023/06/17 09:25:36;;;;;;;14.13;3.70;;;21.30;75.50;;;22.07;50.86;97995.88;5025161;28;20506;-80
2023/06/17 09:28:06;;;;;;;5.73;4.20;;;21.40;76.60;;;22.11;51.53;97996.16;5025690;28;20469;-80
2023/06/17 09:30:45;;;;;;;7.80;4.43;;;21.40;76.10;;;22.13;49.32;97992.16;5027011;28;20535;-80
2023/06/17 09:33:19;;;;;;;5.10;3.87;;;21.30;73.00;;;22.17;47.16;97990.56;5026389;28;20877;-80
2023/06/17 09:35:48;;;;;;;6.80;2.97;;;21.50;72.50;;;22.23;47.76;97980.72;5026126;28;20461;-81
2023/06/17 09:38:18;;;;;;;7.83;3.07;;;21.50;72.60;;;22.27;48.50;97984.47;5026227;28;20524;-80
2023/06/17 09:40:49;;;;;;;4.63;3.60;;;21.60;73.80;;;22.29;47.22;97988.44;5025315;28;20522;-80
2023/06/17 09:43:20;;;;;;;8.30;3.70;;;21.60;71.60;;;22.31;46.17;97983.69;5025907;28;20467;-80
2023/06/17 09:45:56;;;;;;;8.67;3.60;;;21.60;70.80;;;22.36;46.09;97982.88;5024977;28;20493;-80
2023/06/17 09:48:28;;;;;;;6.97;3.47;;;21.70;71.20;;;22.44;46.15;97993.81;5026295;28;20500;-80
2023/06/17 09:50:58;;;;;;;5.60;3.37;;;21.70;72.00;;;22.52;43.59;97993.31;5026603;28;20461;-80
2023/06/17 09:53:29;;;;;;;5.73;3.40;;;21.90;69.20;;;22.64;40.43;97989.56;5025675;28;20952;-80
2023/06/17 09:56:00;;;;;;;5.90;3.67;;;22.00;65.70;;;22.70;40.48;97991.22;5025661;28;20492;-80
2023/06/17 09:58:31;;;;;;;7.07;4.10;;;22.10;66.10;;;22.75;40.54;97985.88;5025665;28;20553;-80
2023/06/17 10:01:05;;;;;;;5.73;3.80;;;22.10;65.40;;;22.76;40.54;97988.28;5026131;28;20473;-80
2023/06/17 10:03:36;;;;;;;10.33;2.90;;;22.10;65.70;;;22.81;39.71;97992.78;5026618;28;20453;-80
2023/06/17 10:06:10;;;;;;;11.23;3.80;;;22.20;65.20;;;22.84;40.04;97981.63;5003447;28;20868;-80
2023/06/17 10:08:43;;;;;;;7.20;3.80;;;22.10;64.70;;;22.91;38.89;97988.25;5026508;28;20477;-81
2023/06/17 10:11:14;;;;;;;6.20;3.50;;;22.30;63.80;;;22.99;38.60;97984.25;5026289;28;20541;-80
2023/06/17 10:13:51;;;;;;;5.03;3.30;;;22.50;63.90;;;23.00;38.89;97975.19;5025845;28;20561;-80
2023/06/17 10:16:25;;;;;;;5.23;3.50;;;22.40;64.00;;;23.04;40.06;97981.59;5025548;28;21081;-80
2023/06/17 10:18:57;;;;;;;5.60;3.30;;;22.40;65.50;;;23.08;40.27;97977.34;5025740;28;20473;-80
2023/06/17 10:21:30;;;;;;;4.90;3.47;;;22.40;66.30;;;23.09;40.29;97976.25;5027488;28;20480;-80
2023/06/17 10:24:01;;;;;;;8.80;4.00;;;22.40;66.20;;;23.18;41.20;97985.31;5026211;28;20536;-80
2023/06/17 10:26:32;;;;;;;5.63;3.27;;;22.50;67.30;;;23.25;40.63;97979.72;5026753;28;20588;-80
2023/06/17 10:29:07;;;;;;;6.70;3.50;;;22.60;65.90;;;23.28;41.00;97974.63;5026414;28;21008;-80